This is the latest recevied weather packets stored in our database for station/object SA6BET-2. If no packets are shown the sender has not sent any weather packets the latest 10 day(s).
| Time | Temp. | Humidity | Pressure | Rain* | Wind** | Luminosity | Snow |
|---|---|---|---|---|---|---|---|
| 1777999765 | 23.33° C | 100% | 1012.5 hPa | - | - | - | - |
| 1777998865 | 23.33° C | 100% | 1012.6 hPa | - | - | - | - |
| 1777997965 | 23.89° C | 100% | 1012.6 hPa | - | - | - | - |
| 1777997064 | 23.89° C | 100% | 1012.5 hPa | - | - | - | - |
| 1777996164 | 23.33° C | 100% | 1012.7 hPa | - | - | - | - |
| 1777995264 | 24.44° C | 100% | 1012.7 hPa | - | - | - | - |
| 1777994364 | 25° C | 100% | 1012.7 hPa | - | - | - | - |
| 1777993464 | 25.56° C | 79% | 1012.6 hPa | - | - | - | - |
| 1777992563 | 27.78° C | 69% | 1012.7 hPa | - | - | - | - |
| 1777991663 | 26.67° C | 73% | 1012.9 hPa | - | - | - | - |
| 1777990763 | 25.56° C | 75% | 1012.9 hPa | - | - | - | - |
| 1777989863 | 28.33° C | 56% | 1013.1 hPa | - | - | - | - |
| 1777988963 | 27.78° C | 60% | 1013.2 hPa | - | - | - | - |
| 1777988063 | 28.33° C | 63% | 1013.4 hPa | - | - | - | - |
| 1777987162 | 28.33° C | 61% | 1013.6 hPa | - | - | - | - |
| 1777986262 | 27.22° C | 67% | 1013.9 hPa | - | - | - | - |
| 1777985361 | 26.67° C | 66% | 1013.9 hPa | - | - | - | - |
| 1777984461 | 27.78° C | 61% | 1014 hPa | - | - | - | - |
| 1777983560 | 28.33° C | 62% | 1014.1 hPa | - | - | - | - |
| 1777981770 | 25.56° C | 81% | 1014.5 hPa | - | - | - | - |
| 1777980870 | 26.11° C | 67% | 1014.6 hPa | - | - | - | - |
| 1777979970 | 23.89° C | 70% | 1014.7 hPa | - | - | - | - |
| 1777979073 | 25.56° C | 68% | 1014.9 hPa | - | - | - | - |
| 1777978172 | 25° C | 72% | 1014.8 hPa | - | - | - | - |
| 1777976369 | 25° C | 73% | 1014.9 hPa | - | - | - | - |
* Rain since midnight (hover to see other rain measurements)
** Current wind speed in m/s (hover to see current wind gust speed)